createdAt,value
2023-02-22T00:00:20.045Z,3.30
2023-02-22T00:02:48.516Z,3.00
2023-02-22T00:05:17.544Z,3.63
2023-02-22T00:07:45.786Z,3.50
2023-02-22T00:10:14.973Z,4.07
2023-02-22T00:12:43.271Z,3.13
2023-02-22T00:15:14.262Z,3.97
2023-02-22T00:17:43.788Z,4.20
2023-02-22T00:20:14.168Z,3.80
2023-02-22T00:22:42.629Z,4.13
2023-02-22T00:25:10.989Z,4.63
2023-02-22T00:27:39.117Z,4.43
2023-02-22T00:30:09.522Z,4.20
2023-02-22T00:32:37.724Z,4.83
2023-02-22T00:35:08.387Z,5.80
2023-02-22T00:37:36.805Z,5.30
2023-02-22T00:40:08.565Z,5.70
2023-02-22T00:42:36.761Z,5.97
2023-02-22T00:45:05.242Z,5.67
2023-02-22T00:47:33.337Z,5.77
2023-02-22T00:50:01.566Z,5.87
2023-02-22T00:52:31.388Z,6.40
2023-02-22T00:55:00.072Z,5.90
2023-02-22T00:57:28.256Z,6.00
2023-02-22T00:59:56.481Z,6.17
2023-02-22T01:02:24.712Z,6.50
2023-02-22T01:04:52.971Z,6.63
2023-02-22T01:07:21.405Z,6.77
2023-02-22T01:09:50.874Z,6.43
2023-02-22T01:12:20.979Z,7.00
2023-02-22T01:14:49.678Z,6.33
2023-02-22T01:17:17.850Z,7.20
2023-02-22T01:19:46.233Z,7.33
2023-02-22T01:22:14.351Z,6.50
2023-02-22T01:24:42.439Z,6.50
2023-02-22T01:27:12.631Z,6.87
2023-02-22T01:29:41.354Z,7.40
2023-02-22T01:32:12.041Z,7.33
2023-02-22T01:34:40.272Z,7.83
2023-02-22T01:37:08.327Z,7.33
2023-02-22T01:39:36.428Z,7.27
2023-02-22T01:42:04.568Z,7.60
2023-02-22T01:44:35.595Z,7.60
2023-02-22T01:47:04.877Z,7.00
2023-02-22T01:49:34.485Z,7.17
2023-02-22T01:52:03.884Z,7.17
2023-02-22T01:54:33.415Z,6.87
2023-02-22T01:57:06.090Z,6.93
2023-02-22T01:59:37.837Z,6.53
2023-02-22T02:02:06.353Z,6.77
2023-02-22T02:04:34.668Z,6.20
2023-02-22T02:07:04.313Z,6.77
2023-02-22T02:09:34.200Z,6.37
2023-02-22T02:12:05.079Z,7.00
2023-02-22T02:14:33.358Z,6.80
2023-02-22T02:17:02.885Z,6.23
2023-02-22T02:19:39.452Z,6.73
2023-02-22T02:22:33.568Z,6.47
2023-02-22T02:25:18.300Z,6.10
2023-02-22T02:28:05.757Z,6.50
2023-02-22T02:30:44.805Z,6.03
2023-02-22T02:33:14.733Z,6.27
2023-02-22T02:35:50.117Z,5.73
2023-02-22T02:38:24.066Z,6.27
2023-02-22T02:40:55.367Z,6.10
2023-02-22T02:43:26.628Z,6.23
2023-02-22T02:45:56.586Z,5.50
2023-02-22T02:48:27.405Z,5.57
2023-02-22T02:50:56.663Z,5.40
2023-02-22T02:53:28.584Z,5.70
2023-02-22T02:55:57.268Z,5.57
2023-02-22T02:58:28.479Z,5.27
2023-02-22T03:00:59.087Z,6.07
2023-02-22T03:03:55.165Z,5.43
2023-02-22T03:06:42.267Z,5.67
2023-02-22T03:09:14.758Z,5.57
2023-02-22T03:11:50.941Z,5.70
2023-02-22T03:14:23.641Z,5.47
2023-02-22T03:16:54.426Z,5.43
2023-02-22T03:19:28.049Z,5.67
2023-02-22T03:21:57.820Z,5.50
2023-02-22T03:24:28.810Z,5.70
2023-02-22T03:26:59.442Z,5.47
2023-02-22T03:29:27.888Z,5.90
2023-02-22T03:32:01.559Z,6.03
2023-02-22T03:34:35.610Z,6.07
2023-02-22T03:37:06.575Z,6.00
2023-02-22T03:39:34.835Z,6.20
2023-02-22T03:42:05.523Z,6.30
2023-02-22T03:44:34.197Z,5.67
2023-02-22T03:47:03.401Z,5.27
2023-02-22T03:49:36.299Z,5.83
2023-02-22T03:52:06.110Z,5.77
2023-02-22T03:54:35.182Z,5.30
2023-02-22T03:57:07.872Z,5.80
2023-02-22T03:59:39.705Z,5.53
2023-02-22T04:02:07.979Z,6.03
2023-02-22T04:04:37.469Z,5.50
2023-02-22T04:07:05.652Z,5.57
2023-02-22T04:09:34.218Z,5.17
2023-02-22T04:12:02.667Z,5.40
2023-02-22T04:14:34.363Z,5.07
2023-02-22T04:17:03.014Z,5.23
2023-02-22T04:19:31.142Z,4.90
2023-02-22T04:22:00.643Z,5.33
2023-02-22T04:24:30.534Z,5.20
2023-02-22T04:26:59.271Z,5.63
2023-02-22T04:29:27.524Z,4.67
2023-02-22T04:31:56.026Z,4.37
2023-02-22T04:34:24.167Z,4.60
2023-02-22T04:36:52.449Z,4.77
2023-02-22T04:39:23.012Z,4.80
2023-02-22T04:41:52.752Z,4.97
2023-02-22T04:44:21.057Z,5.60
2023-02-22T04:46:49.356Z,4.53
2023-02-22T04:49:18.016Z,4.77
2023-02-22T04:51:47.955Z,5.50
2023-02-22T04:54:17.474Z,5.10
2023-02-22T04:56:49.737Z,4.83
2023-02-22T04:59:19.771Z,5.00
2023-02-22T05:01:54.489Z,4.70
2023-02-22T05:04:22.957Z,4.43
2023-02-22T05:06:52.738Z,4.97
2023-02-22T05:09:22.755Z,4.90
2023-02-22T05:11:52.181Z,5.10
2023-02-22T05:14:20.264Z,4.90
2023-02-22T05:16:49.916Z,5.17
2023-02-22T05:19:18.277Z,5.10
2023-02-22T05:21:46.352Z,4.93
2023-02-22T05:24:14.405Z,4.67
2023-02-22T05:26:42.804Z,5.07
2023-02-22T05:29:12.269Z,4.20
2023-02-22T05:31:42.329Z,3.83
2023-02-22T05:34:10.554Z,3.80
2023-02-22T05:36:38.721Z,3.80
2023-02-22T05:39:06.804Z,3.67
2023-02-22T05:41:34.984Z,3.33
2023-02-22T05:44:04.110Z,3.20
2023-02-22T05:46:33.770Z,3.43
2023-02-22T05:49:02.878Z,3.50
2023-02-22T05:51:30.964Z,3.13
2023-02-22T05:53:59.064Z,4.03
2023-02-22T05:56:28.773Z,4.23
2023-02-22T05:58:57.254Z,3.80
2023-02-22T06:01:25.432Z,3.40
2023-02-22T06:03:54.938Z,3.30
2023-02-22T06:06:23.096Z,3.37
2023-02-22T06:08:51.177Z,2.90
2023-02-22T06:11:20.394Z,2.57
2023-02-22T06:13:52.363Z,2.73
2023-02-22T06:16:21.185Z,2.40
2023-02-22T06:18:49.391Z,2.47
2023-02-22T06:21:19.127Z,2.37
2023-02-22T06:23:47.374Z,2.17
2023-02-22T06:26:17.540Z,2.10
2023-02-22T06:28:46.333Z,2.07
2023-02-22T06:31:14.507Z,1.80
2023-02-22T06:33:42.645Z,2.20
2023-02-22T06:36:11.506Z,2.10
2023-02-22T06:38:40.959Z,2.20
2023-02-22T06:41:10.180Z,2.20
2023-02-22T06:43:38.545Z,2.37
2023-02-22T06:46:07.010Z,2.23
2023-02-22T06:48:35.108Z,1.90
2023-02-22T06:51:03.171Z,2.23
2023-02-22T06:53:31.273Z,2.37
2023-02-22T06:56:02.150Z,2.63
2023-02-22T06:58:30.243Z,2.50
2023-02-22T07:00:58.386Z,3.10
2023-02-22T07:03:26.519Z,3.17
2023-02-22T07:05:55.446Z,2.50
2023-02-22T07:08:23.909Z,2.57
2023-02-22T07:10:53.154Z,3.20
2023-02-22T07:13:22.636Z,3.77
2023-02-22T07:15:50.832Z,3.70
2023-02-22T07:18:18.913Z,4.13
2023-02-22T07:20:47.233Z,4.70
2023-02-22T07:23:15.798Z,4.63
2023-02-22T07:25:43.998Z,4.80
2023-02-22T07:28:12.095Z,4.67
2023-02-22T07:30:41.603Z,5.47
2023-02-22T07:33:10.771Z,5.67
2023-02-22T07:35:39.927Z,4.70
2023-02-22T07:38:08.992Z,10.30
2023-02-22T07:40:37.543Z,8.30
2023-02-22T07:43:07.200Z,8.50
2023-02-22T07:45:36.324Z,4.93
2023-02-22T07:48:06.529Z,4.40
2023-02-22T07:50:35.369Z,3.43
2023-02-22T07:53:04.506Z,4.13
2023-02-22T07:55:33.112Z,4.57
2023-02-22T07:58:02.218Z,4.53
2023-02-22T08:00:31.884Z,3.67
2023-02-22T08:03:00.679Z,4.20
2023-02-22T08:05:30.751Z,3.67
2023-02-22T08:07:58.973Z,4.17
2023-02-22T08:10:27.229Z,3.63
2023-02-22T08:12:55.967Z,4.03
2023-02-22T08:15:26.118Z,4.07
2023-02-22T08:17:54.618Z,4.20
2023-02-22T08:20:24.139Z,4.47
2023-02-22T08:22:53.683Z,5.03
2023-02-22T08:25:22.646Z,4.80
2023-02-22T08:27:50.986Z,4.77
2023-02-22T08:30:21.165Z,5.40
2023-02-22T08:32:49.506Z,4.87
2023-02-22T08:35:18.168Z,4.53
2023-02-22T08:37:46.421Z,5.10
2023-02-22T08:40:17.328Z,4.93
2023-02-22T08:42:45.598Z,5.33
2023-02-22T08:45:14.377Z,5.37
2023-02-22T08:47:42.476Z,4.80
2023-02-22T08:50:11.043Z,5.00
2023-02-22T08:52:39.294Z,4.60
2023-02-22T08:55:08.354Z,4.80
2023-02-22T08:57:37.779Z,4.93
2023-02-22T09:00:06.940Z,4.73
2023-02-22T09:02:35.060Z,4.67
2023-02-22T09:05:03.207Z,5.03
2023-02-22T09:07:31.650Z,4.63
2023-02-22T09:09:59.755Z,4.77
2023-02-22T09:12:27.830Z,4.70
2023-02-22T09:14:57.353Z,4.30
2023-02-22T09:17:25.412Z,5.20
2023-02-22T09:19:53.788Z,5.00
2023-02-22T09:22:21.945Z,4.97
2023-02-22T09:24:50.019Z,4.53
2023-02-22T09:27:20.174Z,4.87
2023-02-22T09:29:49.394Z,6.37
2023-02-22T09:32:19.155Z,4.83
2023-02-22T09:34:47.764Z,4.10
2023-02-22T09:37:15.860Z,4.50
2023-02-22T09:39:44.893Z,4.13
2023-02-22T09:42:14.568Z,4.60
2023-02-22T09:44:44.963Z,4.30
2023-02-22T09:47:18.237Z,4.20
2023-02-22T09:49:57.444Z,4.40
2023-02-22T09:52:27.526Z,4.20
2023-02-22T09:54:59.292Z,4.00
2023-02-22T09:57:28.962Z,3.70
2023-02-22T10:00:01.587Z,3.43
2023-02-22T10:02:41.456Z,3.50
2023-02-22T10:05:13.529Z,4.00
2023-02-22T10:07:44.260Z,3.40
2023-02-22T10:10:16.216Z,3.70
2023-02-22T10:12:47.313Z,3.07
2023-02-22T10:15:37.206Z,4.07
2023-02-22T10:18:20.904Z,3.47
2023-02-22T10:20:53.489Z,3.57
2023-02-22T10:23:25.245Z,3.00
2023-02-22T10:25:54.982Z,2.90
2023-02-22T10:28:24.278Z,3.10
2023-02-22T10:30:56.189Z,3.77
2023-02-22T10:33:26.554Z,3.63
2023-02-22T10:35:56.283Z,4.23
2023-02-22T10:38:25.260Z,3.77
2023-02-22T10:40:56.257Z,3.83
2023-02-22T10:43:25.779Z,3.30
2023-02-22T10:45:56.020Z,3.07
2023-02-22T10:48:25.059Z,3.23
2023-02-22T10:50:53.378Z,3.10
2023-02-22T10:53:23.250Z,4.10
2023-02-22T10:56:10.464Z,3.87
2023-02-22T10:58:43.461Z,3.60
2023-02-22T11:01:27.349Z,3.27
2023-02-22T11:03:59.825Z,3.43
2023-02-22T11:06:27.940Z,3.10
2023-02-22T11:09:11.234Z,3.40
2023-02-22T11:11:40.447Z,3.40
2023-02-22T11:14:10.793Z,3.47
2023-02-22T11:16:40.023Z,3.63
2023-02-22T11:19:13.799Z,4.00
2023-02-22T11:21:41.991Z,3.70
2023-02-22T11:24:11.957Z,2.97
2023-02-22T11:26:43.784Z,3.27
2023-02-22T11:29:13.896Z,3.37
2023-02-22T11:31:45.327Z,3.20
2023-02-22T11:34:28.194Z,3.20
2023-02-22T11:36:56.672Z,3.00
2023-02-22T11:39:27.191Z,3.90
2023-02-22T11:41:56.757Z,3.20
2023-02-22T11:44:26.581Z,3.10
2023-02-22T11:46:55.955Z,3.27
2023-02-22T11:49:25.250Z,2.83
2023-02-22T11:52:18.132Z,3.13
2023-02-22T11:55:02.272Z,2.90
2023-02-22T11:57:37.450Z,2.80
2023-02-22T12:00:16.220Z,2.77
2023-02-22T12:02:59.306Z,2.80
2023-02-22T12:05:37.345Z,2.43
2023-02-22T12:08:19.780Z,3.00
2023-02-22T12:10:56.397Z,3.00
2023-02-22T12:13:31.459Z,2.40
2023-02-22T12:16:03.219Z,2.40
2023-02-22T12:18:33.991Z,2.43
2023-02-22T12:21:03.058Z,2.70
2023-02-22T12:23:33.402Z,2.47
2023-02-22T12:26:05.289Z,2.53
2023-02-22T12:28:35.837Z,2.47
2023-02-22T12:31:12.670Z,2.50
2023-02-22T12:33:56.428Z,3.00
2023-02-22T12:36:26.903Z,2.40
2023-02-22T12:38:58.278Z,2.20
2023-02-22T12:41:31.573Z,2.17
2023-02-22T12:44:03.066Z,2.60
2023-02-22T12:46:32.843Z,2.50
2023-02-22T12:49:03.187Z,2.63
2023-02-22T12:51:34.353Z,2.23
2023-02-22T12:54:06.403Z,2.03
2023-02-22T12:56:37.769Z,2.13
2023-02-22T12:59:09.418Z,2.00
2023-02-22T13:01:39.033Z,2.40
2023-02-22T13:04:20.087Z,2.63
2023-02-22T13:06:54.450Z,2.00
2023-02-22T13:09:51.554Z,2.50
2023-02-22T13:12:24.397Z,2.50
2023-02-22T13:15:00.459Z,1.97
2023-02-22T13:17:32.206Z,2.30
2023-02-22T13:20:01.247Z,2.30
2023-02-22T13:22:32.245Z,2.10
2023-02-22T13:25:04.725Z,2.20
2023-02-22T13:27:38.618Z,2.57
2023-02-22T13:30:07.855Z,2.37
2023-02-22T13:32:43.638Z,2.60
2023-02-22T13:35:22.091Z,2.57
2023-02-22T13:38:03.297Z,2.10
2023-02-22T13:40:49.836Z,2.30
2023-02-22T13:43:47.356Z,2.40
2023-02-22T13:47:08.715Z,2.63
2023-02-22T13:49:53.163Z,2.23
2023-02-22T13:52:22.119Z,2.33
2023-02-22T13:54:51.527Z,2.40
2023-02-22T13:57:20.452Z,2.67
2023-02-22T13:59:49.968Z,2.57
2023-02-22T14:02:36.719Z,2.07
2023-02-22T14:05:38.942Z,2.23
2023-02-22T14:08:07.164Z,2.20
2023-02-22T14:10:40.848Z,2.50
2023-02-22T14:13:09.085Z,2.23
2023-02-22T14:15:39.302Z,2.30
2023-02-22T14:18:07.695Z,2.10
2023-02-22T14:20:36.799Z,1.90
2023-02-22T14:23:34.009Z,2.30
2023-02-22T14:26:11.777Z,2.20
2023-02-22T14:28:51.374Z,2.07
2023-02-22T14:31:34.997Z,2.17
2023-02-22T14:34:06.605Z,2.03
2023-02-22T14:36:36.662Z,2.60
2023-02-22T14:39:21.373Z,2.10
2023-02-22T14:41:53.859Z,2.03
2023-02-22T14:44:25.722Z,2.00
2023-02-22T14:46:56.665Z,1.90
2023-02-22T14:49:25.691Z,1.80
2023-02-22T14:51:56.526Z,2.10
2023-02-22T14:54:27.744Z,2.30
2023-02-22T14:57:00.999Z,2.00
2023-02-22T14:59:29.382Z,2.07
2023-02-22T15:02:11.827Z,2.37
2023-02-22T15:04:43.944Z,2.17
2023-02-22T15:07:22.262Z,1.90
2023-02-22T15:09:50.419Z,2.00
2023-02-22T15:12:25.240Z,2.07
2023-02-22T15:15:13.744Z,1.80
2023-02-22T15:17:46.249Z,1.80
2023-02-22T15:20:15.888Z,2.13
2023-02-22T15:22:43.968Z,2.47
2023-02-22T15:25:12.998Z,2.17
2023-02-22T15:27:41.253Z,4.97
2023-02-22T15:30:17.045Z,2.50
2023-02-22T15:33:02.603Z,2.00
2023-02-22T15:35:32.954Z,2.10
2023-02-22T15:38:02.331Z,1.93
2023-02-22T15:40:33.277Z,1.70
2023-02-22T15:43:02.399Z,1.90
2023-02-22T15:45:31.695Z,1.73
2023-02-22T15:48:01.250Z,1.77
2023-02-22T15:50:29.704Z,1.60
2023-02-22T15:53:01.754Z,1.93
2023-02-22T15:55:31.024Z,1.83
2023-02-22T15:58:01.658Z,1.70
2023-02-22T16:00:36.376Z,1.57
2023-02-22T16:03:06.156Z,1.50
2023-02-22T16:05:39.795Z,1.60
2023-02-22T16:08:15.697Z,2.17
2023-02-22T16:10:47.433Z,1.70
2023-02-22T16:13:31.023Z,1.70
2023-02-22T16:16:01.994Z,1.67
2023-02-22T16:18:33.790Z,1.93
2023-02-22T16:21:03.387Z,1.63
2023-02-22T16:23:33.600Z,2.00
2023-02-22T16:26:06.598Z,1.80
2023-02-22T16:28:35.964Z,1.90
2023-02-22T16:31:04.979Z,2.13
2023-02-22T16:33:34.875Z,1.80
2023-02-22T16:36:08.175Z,2.10
2023-02-22T16:38:38.511Z,1.90
2023-02-22T16:41:07.174Z,2.00
2023-02-22T16:43:35.500Z,1.90
2023-02-22T16:46:04.411Z,1.80
2023-02-22T16:48:38.019Z,1.97
2023-02-22T16:51:10.607Z,2.03
2023-02-22T16:53:38.737Z,1.60
2023-02-22T16:56:07.419Z,1.77
2023-02-22T16:58:37.293Z,2.00
2023-02-22T17:01:06.423Z,2.00
2023-02-22T17:03:37.390Z,2.00
2023-02-22T17:06:06.823Z,1.87
2023-02-22T17:08:35.015Z,2.17
2023-02-22T17:11:03.206Z,3.50
2023-02-22T17:13:31.645Z,2.37
2023-02-22T17:15:59.847Z,2.40
2023-02-22T17:18:29.097Z,2.30
2023-02-22T17:20:58.786Z,2.53
2023-02-22T17:23:27.869Z,2.47
2023-02-22T17:25:56.625Z,2.40
2023-02-22T17:28:25.053Z,1.97
2023-02-22T17:30:53.258Z,2.47
2023-02-22T17:33:26.679Z,2.80
2023-02-22T17:35:55.500Z,2.40
2023-02-22T17:38:27.015Z,2.50
2023-02-22T17:40:55.729Z,2.70
2023-02-22T17:43:23.931Z,2.70
2023-02-22T17:45:53.814Z,3.37
2023-02-22T17:48:24.042Z,3.40
2023-02-22T17:50:52.511Z,3.23
2023-02-22T17:53:22.655Z,3.90
2023-02-22T17:55:52.243Z,3.87
2023-02-22T17:58:20.387Z,3.87
2023-02-22T18:00:49.238Z,4.20
2023-02-22T18:03:21.531Z,4.37
2023-02-22T18:05:50.580Z,4.60
2023-02-22T18:08:18.990Z,4.37
2023-02-22T18:10:47.314Z,4.17
2023-02-22T18:13:18.007Z,4.70
2023-02-22T18:15:46.389Z,3.97
2023-02-22T18:18:14.977Z,4.10
2023-02-22T18:20:44.441Z,4.10
2023-02-22T18:23:14.233Z,4.67
2023-02-22T18:25:43.573Z,4.53
2023-02-22T18:28:11.799Z,5.00
2023-02-22T18:30:41.530Z,5.07
2023-02-22T18:33:11.411Z,6.03
2023-02-22T18:35:40.017Z,5.17
2023-02-22T18:38:09.270Z,5.50
2023-02-22T18:40:38.289Z,6.03
2023-02-22T18:43:06.399Z,5.63
2023-02-22T18:45:36.062Z,5.50
2023-02-22T18:48:06.009Z,6.43
2023-02-22T18:50:34.652Z,6.10
2023-02-22T18:53:03.153Z,6.50
2023-02-22T18:55:31.313Z,7.30
2023-02-22T18:57:59.426Z,6.97
2023-02-22T19:00:28.774Z,6.57
2023-02-22T19:02:57.817Z,7.00
2023-02-22T19:05:27.304Z,6.93
2023-02-22T19:07:55.412Z,7.47
2023-02-22T19:10:23.550Z,7.47
2023-02-22T19:12:51.629Z,7.43
2023-02-22T19:15:20.209Z,7.67
2023-02-22T19:17:48.320Z,8.03
2023-02-22T19:20:16.683Z,7.73
2023-02-22T19:22:48.839Z,7.13
2023-02-22T19:25:17.171Z,7.77
2023-02-22T19:27:45.282Z,7.77
2023-02-22T19:32:47.513Z,8.47
2023-02-22T19:35:26.450Z,8.23
2023-02-22T19:37:56.611Z,7.50
2023-02-22T19:40:24.777Z,7.93
2023-02-22T19:42:53.089Z,8.23
2023-02-22T19:45:23.266Z,8.73
2023-02-22T19:47:54.852Z,8.00
2023-02-22T19:50:23.056Z,7.53
2023-02-22T19:52:51.160Z,8.10
2023-02-22T19:55:21.551Z,8.53
2023-02-22T19:57:50.293Z,8.00
2023-02-22T20:00:24.393Z,8.17
2023-02-22T20:02:57.991Z,7.33
2023-02-22T20:05:26.060Z,8.20
2023-02-22T20:07:54.113Z,6.73
2023-02-22T20:10:24.225Z,8.20
2023-02-22T20:12:52.415Z,7.20
2023-02-22T20:15:21.946Z,7.90
2023-02-22T20:17:50.860Z,7.53
2023-02-22T20:20:19.384Z,8.20
2023-02-22T20:22:47.985Z,7.50
2023-02-22T20:25:16.268Z,8.37
2023-02-22T20:27:46.652Z,8.07
2023-02-22T20:30:18.134Z,8.10
2023-02-22T20:32:46.593Z,7.67
2023-02-22T20:35:16.570Z,8.13
2023-02-22T20:37:45.244Z,8.27
2023-02-22T20:40:13.462Z,7.57
2023-02-22T20:42:41.729Z,7.77
2023-02-22T20:45:12.079Z,8.40
2023-02-22T20:47:40.420Z,8.77
2023-02-22T20:50:10.045Z,7.80
2023-02-22T20:52:38.354Z,7.30
2023-02-22T20:55:11.586Z,7.93
2023-02-22T20:57:40.034Z,7.67
2023-02-22T21:00:11.253Z,8.10
2023-02-22T21:02:40.821Z,8.03
2023-02-22T21:05:09.691Z,8.37
2023-02-22T21:07:37.792Z,7.40
2023-02-22T21:10:06.820Z,8.00
2023-02-22T21:12:35.134Z,8.23
2023-02-22T21:15:03.580Z,8.50
2023-02-22T21:17:32.269Z,8.23
2023-02-22T21:20:07.508Z,8.77
2023-02-22T21:22:35.826Z,8.17
2023-02-22T21:25:04.444Z,7.40
2023-02-22T21:27:32.869Z,8.73
2023-02-22T21:30:01.239Z,8.33
2023-02-22T21:32:29.918Z,8.20
2023-02-22T21:34:58.118Z,8.53
2023-02-22T21:37:28.798Z,8.00
2023-02-22T21:39:57.105Z,9.10
2023-02-22T21:42:25.304Z,8.33
2023-02-22T21:44:56.322Z,9.03
2023-02-22T21:47:24.991Z,8.37
2023-02-22T21:49:53.600Z,8.50
2023-02-22T21:52:21.830Z,8.00
2023-02-22T21:54:51.270Z,8.60
2023-02-22T21:57:19.631Z,8.23
2023-02-22T21:59:48.558Z,8.93
2023-02-22T22:02:16.806Z,7.97
2023-02-22T22:04:45.962Z,8.50
2023-02-22T22:07:14.669Z,8.23
2023-02-22T22:09:43.655Z,8.90
2023-02-22T22:12:14.171Z,8.53
2023-02-22T22:14:42.236Z,8.50
2023-02-22T22:17:10.315Z,8.77
2023-02-22T22:19:40.482Z,8.83
2023-02-22T22:22:08.909Z,8.70
2023-02-22T22:24:37.598Z,8.63
2023-02-22T22:27:09.612Z,8.90
2023-02-22T22:29:39.269Z,8.77
2023-02-22T22:32:07.763Z,8.63
2023-02-22T22:34:37.996Z,7.93
2023-02-22T22:37:06.305Z,8.57
2023-02-22T22:39:34.536Z,8.27
2023-02-22T22:42:03.015Z,8.97
2023-02-22T22:44:32.834Z,8.33
2023-02-22T22:47:02.578Z,9.10
2023-02-22T22:49:32.614Z,8.50
2023-02-22T22:52:00.989Z,8.73
2023-02-22T22:54:29.819Z,9.37
2023-02-22T22:56:58.075Z,9.50
2023-02-22T22:59:27.818Z,8.20
2023-02-22T23:01:56.697Z,8.90
2023-02-22T23:04:26.334Z,9.13
2023-02-22T23:06:55.281Z,8.77
2023-02-22T23:09:24.543Z,8.83
2023-02-22T23:11:53.733Z,8.63
2023-02-22T23:14:22.603Z,8.60
2023-02-22T23:16:51.201Z,8.40
2023-02-22T23:19:19.709Z,8.43
2023-02-22T23:21:51.246Z,9.03
2023-02-22T23:24:21.106Z,8.13
2023-02-22T23:26:49.582Z,8.17
2023-02-22T23:29:17.922Z,8.77
2023-02-22T23:31:48.424Z,8.73
2023-02-22T23:34:17.269Z,9.00
2023-02-22T23:36:45.565Z,8.83
2023-02-22T23:39:16.110Z,8.40
2023-02-22T23:41:44.381Z,8.37
2023-02-22T23:44:17.602Z,8.67
2023-02-22T23:46:48.195Z,8.07
2023-02-22T23:49:20.208Z,8.43
2023-02-22T23:51:48.347Z,8.17
2023-02-22T23:54:19.278Z,9.00
2023-02-22T23:56:56.323Z,9.13
2023-02-22T23:59:24.808Z,8.23
